createdAt,value
2019-04-06T00:00:28.098Z,89.67
2019-04-06T00:01:28.089Z,89.97
2019-04-06T00:02:28.099Z,90.28
2019-04-06T00:03:28.069Z,90.18
2019-04-06T00:04:28.055Z,90.08
2019-04-06T00:05:28.043Z,90.28
2019-04-06T00:06:28.051Z,89.97
2019-04-06T00:07:28.084Z,90.59
2019-04-06T00:08:28.019Z,90.90
2019-04-06T00:09:28.005Z,90.90
2019-04-06T00:10:27.995Z,91.05
2019-04-06T00:11:27.989Z,91.05
2019-04-06T00:12:28.039Z,91.25
2019-04-06T00:13:27.961Z,90.64
2019-04-06T00:14:27.948Z,90.94
2019-04-06T00:15:27.964Z,90.94
2019-04-06T00:16:27.927Z,91.05
2019-04-06T00:17:27.940Z,91.05
2019-04-06T00:18:27.907Z,91.15
2019-04-06T00:19:27.895Z,91.15
2019-04-06T00:20:27.969Z,91.36
2019-04-06T00:21:27.875Z,90.94
2019-04-06T00:22:27.864Z,90.43
2019-04-06T00:23:27.876Z,91.05
2019-04-06T00:24:27.866Z,90.94
2019-04-06T00:25:27.832Z,90.94
2019-04-06T00:26:27.821Z,90.84
2019-04-06T00:27:27.868Z,90.43
2019-04-06T00:28:27.818Z,90.94
2019-04-06T00:29:27.817Z,90.53
2019-04-06T00:30:27.788Z,90.94
2019-04-06T00:31:27.837Z,90.94
2019-04-06T00:32:27.761Z,91.56
2019-04-06T00:33:27.778Z,91.25
2019-04-06T00:34:27.744Z,91.42
2019-04-06T00:35:27.725Z,90.53
2019-04-06T00:36:27.717Z,90.64
2019-04-06T00:37:27.703Z,91.05
2019-04-06T00:38:27.711Z,91.15
2019-04-06T00:39:27.682Z,90.80
2019-04-06T00:40:27.674Z,90.73
2019-04-06T00:41:27.665Z,90.64
2019-04-06T00:42:27.652Z,90.84
2019-04-06T00:43:27.643Z,90.80
2019-04-06T00:44:27.645Z,90.90
2019-04-06T00:45:27.622Z,90.53
2019-04-06T00:46:27.607Z,90.94
2019-04-06T00:47:27.598Z,90.94
2019-04-06T00:48:27.605Z,90.73
2019-04-06T00:49:27.613Z,90.84
2019-04-06T00:50:27.564Z,90.64
2019-04-06T00:51:27.555Z,90.94
2019-04-06T00:52:27.556Z,90.80
2019-04-06T00:53:27.533Z,91.77
2019-04-06T00:54:28.476Z,91.21
2019-04-06T00:55:27.520Z,91.21
2019-04-06T00:56:27.508Z,90.84
2019-04-06T00:57:27.493Z,90.90
2019-04-06T00:58:27.483Z,91.11
2019-04-06T00:59:27.491Z,91.83
2019-04-06T01:00:27.464Z,92.08
2019-04-06T01:01:27.444Z,91.77
2019-04-06T01:02:27.523Z,91.66
2019-04-06T01:03:27.442Z,91.25
2019-04-06T01:04:27.520Z,91.66
2019-04-06T01:05:27.404Z,91.77
2019-04-06T01:06:27.411Z,91.97
2019-04-06T01:07:27.381Z,92.69
2019-04-06T01:08:27.371Z,93.21
2019-04-06T01:09:27.406Z,93.11
2019-04-06T01:10:27.352Z,92.49
2019-04-06T01:11:27.352Z,92.49
2019-04-06T01:12:27.333Z,93.21
2019-04-06T01:13:27.324Z,92.80
2019-04-06T01:14:27.332Z,92.49
2019-04-06T01:15:27.294Z,93.31
2019-04-06T01:16:27.370Z,92.80
2019-04-06T01:17:27.279Z,93.11
2019-04-06T01:18:27.268Z,92.69
2019-04-06T01:19:27.290Z,92.38
2019-04-06T01:20:27.243Z,92.29
2019-04-06T01:21:27.230Z,93.11
2019-04-06T01:22:27.241Z,92.69
2019-04-06T01:23:27.267Z,93.21
2019-04-06T01:24:27.220Z,93.52
2019-04-06T01:25:27.192Z,93.01
2019-04-06T01:26:27.182Z,92.49
2019-04-06T01:27:27.168Z,92.90
2019-04-06T01:28:27.166Z,93.46
2019-04-06T01:29:27.195Z,93.41
2019-04-06T01:30:27.135Z,92.90
2019-04-06T01:31:27.127Z,92.90
2019-04-06T01:32:27.149Z,92.90
2019-04-06T01:33:27.103Z,92.90
2019-04-06T01:34:27.093Z,92.74
2019-04-06T01:35:27.101Z,93.11
2019-04-06T01:36:27.106Z,92.80
2019-04-06T01:37:27.063Z,93.11
2019-04-06T01:38:27.049Z,93.01
2019-04-06T01:39:27.090Z,92.80
2019-04-06T01:40:27.048Z,93.41
2019-04-06T01:41:27.105Z,92.69
2019-04-06T01:42:27.007Z,93.01
2019-04-06T01:43:26.997Z,92.80
2019-04-06T01:44:26.984Z,92.49
2019-04-06T01:45:27.030Z,93.41
2019-04-06T01:46:27.018Z,93.52
2019-04-06T01:47:26.963Z,93.31
2019-04-06T01:48:26.946Z,93.41
2019-04-06T01:49:26.928Z,93.41
2019-04-06T01:50:27.070Z,93.31
2019-04-06T01:51:26.923Z,93.52
2019-04-06T01:52:26.922Z,92.80
2019-04-06T01:53:26.887Z,93.41
2019-04-06T01:54:26.881Z,93.41
2019-04-06T01:55:26.886Z,93.52
2019-04-06T01:56:26.944Z,93.21
2019-04-06T01:57:26.853Z,93.52
2019-04-06T01:58:26.841Z,92.90
2019-04-06T01:59:26.824Z,92.80
2019-04-06T02:00:26.836Z,93.52
2019-04-06T02:01:26.801Z,92.59
2019-04-06T02:02:26.790Z,92.90
2019-04-06T02:03:26.817Z,92.59
2019-04-06T02:04:26.871Z,93.06
2019-04-06T02:05:26.810Z,93.06
2019-04-06T02:06:26.746Z,93.52
2019-04-06T02:07:26.737Z,93.41
2019-04-06T02:08:26.729Z,92.49
2019-04-06T02:09:26.761Z,92.44
2019-04-06T02:10:26.722Z,92.90
2019-04-06T02:11:26.694Z,93.21
2019-04-06T02:12:26.682Z,93.21
2019-04-06T02:13:26.677Z,92.59
2019-04-06T02:14:26.661Z,92.69
2019-04-06T02:15:26.673Z,92.90
2019-04-06T02:16:26.641Z,93.21
2019-04-06T02:17:26.629Z,92.44
2019-04-06T02:18:26.623Z,91.83
2019-04-06T02:19:26.608Z,91.97
2019-04-06T02:20:26.616Z,92.44
2019-04-06T02:21:26.586Z,92.65
2019-04-06T02:22:26.576Z,92.49
2019-04-06T02:23:26.577Z,92.69
2019-04-06T02:24:26.561Z,93.27
2019-04-06T02:25:26.566Z,92.80
2019-04-06T02:26:30.943Z,93.48
2019-04-06T02:27:26.526Z,93.48
2019-04-06T02:28:26.512Z,93.41
2019-04-06T02:29:26.511Z,92.49
2019-04-06T02:30:26.698Z,92.90
2019-04-06T02:31:26.515Z,92.80
2019-04-06T02:32:26.471Z,93.01
2019-04-06T02:33:26.459Z,92.69
2019-04-06T02:34:26.499Z,93.11
2019-04-06T02:35:26.481Z,92.96
2019-04-06T02:36:26.426Z,92.65
2019-04-06T02:37:26.443Z,92.49
2019-04-06T02:38:26.404Z,91.77
2019-04-06T02:39:26.409Z,91.87
2019-04-06T02:40:26.382Z,91.56
2019-04-06T02:41:26.454Z,91.05
2019-04-06T02:42:26.446Z,90.53
2019-04-06T02:43:26.356Z,90.64
2019-04-06T02:44:26.350Z,90.43
2019-04-06T02:45:26.331Z,90.84
2019-04-06T02:46:26.341Z,90.43
2019-04-06T02:47:26.438Z,89.91
2019-04-06T02:48:26.302Z,90.01
2019-04-06T02:49:26.305Z,90.01
2019-04-06T02:50:26.281Z,90.33
2019-04-06T02:51:26.288Z,90.94
2019-04-06T02:52:26.259Z,90.84
2019-04-06T02:53:26.247Z,90.73
2019-04-06T02:54:26.366Z,89.91
2019-04-06T02:55:26.229Z,89.95
2019-04-06T02:56:26.238Z,90.06
2019-04-06T02:57:26.201Z,90.26
2019-04-06T02:58:26.200Z,90.16
2019-04-06T02:59:26.182Z,89.85
2019-04-06T03:00:26.172Z,89.75
2019-04-06T03:01:26.214Z,89.65
2019-04-06T03:02:26.176Z,89.65
2019-04-06T03:03:26.177Z,89.65
2019-04-06T03:04:26.130Z,89.85
2019-04-06T03:05:26.316Z,90.16
2019-04-06T03:06:26.111Z,89.95
2019-04-06T03:07:26.112Z,90.06
2019-04-06T03:08:26.095Z,90.06
2019-04-06T03:09:26.086Z,90.06
2019-04-06T03:10:26.085Z,90.16
2019-04-06T03:11:26.137Z,90.67
2019-04-06T03:12:26.076Z,90.16
2019-04-06T03:13:26.034Z,90.47
2019-04-06T03:14:26.176Z,90.78
2019-04-06T03:15:26.018Z,90.67
2019-04-06T03:16:25.998Z,90.57
2019-04-06T03:17:26.007Z,90.47
2019-04-06T03:18:25.977Z,90.99
2019-04-06T03:19:25.973Z,91.60
2019-04-06T03:20:25.958Z,91.91
2019-04-06T03:21:26.191Z,92.02
2019-04-06T03:22:25.954Z,92.16
2019-04-06T03:23:25.935Z,92.06
2019-04-06T03:24:25.913Z,92.27
2019-04-06T03:25:25.911Z,92.16
2019-04-06T03:26:25.934Z,91.91
2019-04-06T03:27:25.919Z,92.02
2019-04-06T03:28:26.217Z,91.81
2019-04-06T03:29:25.871Z,91.19
2019-04-06T03:30:25.863Z,91.40
2019-04-06T03:31:27.615Z,91.75
2019-04-06T03:32:25.971Z,91.40
2019-04-06T03:33:25.819Z,91.50
2019-04-06T03:34:25.835Z,91.24
2019-04-06T03:35:25.798Z,91.09
2019-04-06T03:36:25.786Z,91.44
2019-04-06T03:37:25.818Z,91.44
2019-04-06T03:38:25.928Z,91.30
2019-04-06T03:39:25.810Z,91.09
2019-04-06T03:40:25.751Z,91.19
2019-04-06T03:41:25.736Z,91.30
2019-04-06T03:42:25.761Z,91.44
2019-04-06T03:43:25.714Z,91.60
2019-04-06T03:44:25.699Z,91.44
2019-04-06T03:45:25.686Z,91.85
2019-04-06T03:46:25.868Z,91.91
2019-04-06T03:47:25.698Z,91.40
2019-04-06T03:48:25.678Z,91.30
2019-04-06T03:49:25.654Z,91.40
2019-04-06T03:50:25.636Z,91.81
2019-04-06T03:51:25.630Z,91.71
2019-04-06T03:52:25.658Z,91.96
2019-04-06T03:53:25.611Z,91.71
2019-04-06T03:54:25.595Z,91.91
2019-04-06T03:55:25.580Z,91.91
2019-04-06T03:56:25.574Z,92.06
2019-04-06T03:57:25.586Z,91.96
2019-04-06T03:58:25.547Z,91.71
2019-04-06T03:59:25.538Z,91.81
2019-04-06T04:00:25.527Z,91.64
2019-04-06T04:01:25.514Z,91.96
2019-04-06T04:02:25.532Z,91.85
2019-04-06T04:03:25.498Z,92.02
2019-04-06T04:04:25.509Z,91.50
2019-04-06T04:05:25.486Z,92.16
2019-04-06T04:06:25.461Z,91.24
2019-04-06T04:07:25.709Z,90.61
2019-04-06T04:08:25.461Z,90.82
2019-04-06T04:09:25.455Z,90.88
2019-04-06T04:10:25.454Z,90.10
2019-04-06T04:11:25.410Z,90.10
2019-04-06T04:12:25.398Z,89.69
2019-04-06T04:13:25.426Z,89.58
2019-04-06T04:14:25.380Z,89.89
2019-04-06T04:15:25.372Z,89.28
2019-04-06T04:16:25.368Z,89.07
2019-04-06T04:17:25.344Z,89.07
2019-04-06T04:18:25.376Z,89.07
2019-04-06T04:19:25.473Z,88.86
2019-04-06T04:20:25.311Z,88.45
2019-04-06T04:21:25.305Z,88.35
2019-04-06T04:22:25.295Z,88.35
2019-04-06T04:23:25.335Z,88.04
2019-04-06T04:24:25.269Z,87.66
2019-04-06T04:25:25.261Z,87.66
2019-04-06T04:26:25.251Z,87.56
2019-04-06T04:27:29.858Z,87.21
2019-04-06T04:28:26.272Z,87.21
2019-04-06T04:29:25.219Z,87.15
2019-04-06T04:30:32.570Z,87.35
2019-04-06T04:31:26.192Z,87.46
2019-04-06T04:32:25.183Z,87.15
2019-04-06T04:33:25.220Z,87.35
2019-04-06T04:34:25.178Z,87.15
2019-04-06T04:35:25.186Z,86.98
2019-04-06T04:36:25.153Z,86.88
2019-04-06T04:37:25.275Z,87.35
2019-04-06T04:38:25.132Z,87.26
2019-04-06T04:39:25.143Z,87.08
2019-04-06T04:40:25.106Z,87.60
2019-04-06T04:41:25.124Z,87.29
2019-04-06T04:42:25.105Z,87.50
2019-04-06T04:43:25.086Z,87.19
2019-04-06T04:44:25.150Z,87.34
2019-04-06T04:45:25.057Z,87.08
2019-04-06T04:46:25.210Z,87.19
2019-04-06T04:47:25.066Z,87.08
2019-04-06T04:48:25.020Z,86.98
2019-04-06T04:49:25.034Z,87.54
2019-04-06T04:50:24.999Z,87.34
2019-04-06T04:51:24.980Z,87.50
2019-04-06T04:52:24.969Z,87.65
2019-04-06T04:53:24.990Z,87.34
2019-04-06T04:54:24.948Z,87.44
2019-04-06T04:55:24.946Z,87.13
2019-04-06T04:56:24.939Z,87.13
2019-04-06T04:57:24.925Z,87.23
2019-04-06T04:58:24.953Z,87.65
2019-04-06T04:59:24.897Z,87.34
2019-04-06T05:00:24.884Z,87.23
2019-04-06T05:01:24.939Z,87.44
2019-04-06T05:02:24.862Z,87.44
2019-04-06T05:03:24.863Z,87.65
2019-04-06T05:04:24.866Z,87.65
2019-04-06T05:05:24.835Z,87.37
2019-04-06T05:06:24.825Z,87.74
2019-04-06T05:07:25.000Z,87.85
2019-04-06T05:08:24.904Z,87.37
2019-04-06T05:09:24.812Z,87.79
2019-04-06T05:10:24.777Z,87.89
2019-04-06T05:11:24.771Z,87.79
2019-04-06T05:12:24.754Z,88.10
2019-04-06T05:13:24.747Z,87.79
2019-04-06T05:14:25.476Z,87.99
2019-04-06T05:15:24.731Z,88.41
2019-04-06T05:16:24.715Z,88.61
2019-04-06T05:17:24.711Z,88.82
2019-04-06T05:18:24.693Z,89.03
2019-04-06T05:19:24.704Z,88.82
2019-04-06T05:20:24.739Z,89.34
2019-04-06T05:21:24.665Z,89.44
2019-04-06T05:22:24.726Z,89.54
2019-04-06T05:23:24.653Z,89.95
2019-04-06T05:24:24.629Z,89.65
2019-04-06T05:25:24.634Z,89.86
2019-04-06T05:26:24.611Z,90.16
2019-04-06T05:27:24.762Z,90.78
2019-04-06T05:28:24.645Z,90.99
2019-04-06T05:29:24.655Z,91.09
2019-04-06T05:30:24.583Z,90.99
2019-04-06T05:31:24.557Z,90.89
2019-04-06T05:32:24.542Z,92.13
2019-04-06T05:33:24.708Z,92.02
2019-04-06T05:34:24.602Z,92.02
2019-04-06T05:35:24.530Z,93.78
2019-04-06T05:36:24.516Z,93.68
2019-04-06T05:37:24.609Z,93.37
2019-04-06T05:38:24.485Z,91.92
2019-04-06T05:39:24.499Z,91.92
2019-04-06T05:40:24.476Z,92.02
2019-04-06T05:41:24.506Z,92.19
2019-04-06T05:42:24.435Z,92.33
2019-04-06T05:43:24.602Z,93.05
2019-04-06T05:44:24.492Z,93.88
2019-04-06T05:45:24.432Z,93.73
2019-04-06T05:46:24.395Z,93.73
2019-04-06T05:47:24.393Z,93.84
2019-04-06T05:48:24.430Z,94.35
2019-04-06T05:49:24.361Z,94.87
2019-04-06T05:50:24.394Z,94.97
2019-04-06T05:51:24.339Z,95.28
2019-04-06T05:52:24.332Z,96.31
2019-04-06T05:53:24.420Z,96.83
2019-04-06T05:54:24.332Z,96.83
2019-04-06T05:55:24.793Z,97.34
2019-04-06T05:56:24.355Z,96.31
2019-04-06T05:57:24.300Z,95.28
2019-04-06T05:58:24.288Z,95.49
2019-04-06T05:59:24.290Z,95.24
2019-04-06T06:00:24.252Z,95.55
2019-04-06T06:01:24.256Z,95.03
2019-04-06T06:02:24.243Z,95.24
2019-04-06T06:03:24.216Z,95.55
2019-04-06T06:04:24.201Z,95.03
2019-04-06T06:05:24.199Z,95.55
2019-04-06T06:06:24.212Z,95.96
2019-04-06T06:07:24.197Z,96.37
2019-04-06T06:08:24.160Z,96.48
2019-04-06T06:09:24.149Z,96.17
2019-04-06T06:10:24.326Z,97.09
2019-04-06T06:11:24.128Z,96.74
2019-04-06T06:12:24.132Z,97.56
2019-04-06T06:13:24.164Z,98.08
2019-04-06T06:14:24.099Z,98.29
2019-04-06T06:15:24.218Z,98.19
2019-04-06T06:16:24.134Z,97.73
2019-04-06T06:17:24.074Z,98.29
2019-04-06T06:18:27.286Z,98.08
2019-04-06T06:19:24.060Z,98.24
2019-04-06T06:20:24.032Z,97.94
2019-04-06T06:21:24.113Z,98.14
2019-04-06T06:22:24.043Z,98.24
2019-04-06T06:23:24.062Z,97.94
2019-04-06T06:24:24.030Z,97.78
2019-04-06T06:25:24.039Z,97.78
2019-04-06T06:26:23.966Z,98.20
2019-04-06T06:27:23.958Z,97.89
2019-04-06T06:28:23.950Z,97.58
2019-04-06T06:29:23.933Z,96.86
2019-04-06T06:30:23.955Z,97.17
2019-04-06T06:31:23.910Z,97.17
2019-04-06T06:32:23.905Z,96.96
2019-04-06T06:33:23.890Z,97.17
2019-04-06T06:34:23.879Z,95.93
2019-04-06T06:35:23.910Z,92.33
2019-04-06T06:36:23.875Z,93.87
2019-04-06T06:37:23.852Z,94.76
2019-04-06T06:38:23.842Z,91.71
2019-04-06T06:39:23.830Z,92.12
2019-04-06T06:40:23.819Z,94.85
2019-04-06T06:41:23.828Z,95.27
2019-04-06T06:42:23.925Z,91.87
2019-04-06T06:43:23.784Z,93.62
2019-04-06T06:44:23.773Z,95.06
2019-04-06T06:45:23.802Z,93.99
2019-04-06T06:46:23.758Z,91.31
2019-04-06T06:47:23.764Z,93.48
2019-04-06T06:48:23.729Z,94.71
2019-04-06T06:49:23.758Z,95.80
2019-04-06T06:50:23.708Z,95.95
2019-04-06T06:51:23.703Z,95.39
2019-04-06T06:52:23.685Z,95.08
2019-04-06T06:53:23.700Z,94.73
2019-04-06T06:54:23.664Z,94.31
2019-04-06T06:55:23.658Z,93.29
2019-04-06T06:56:23.642Z,91.85
2019-04-06T06:57:23.836Z,92.25
2019-04-06T06:58:25.552Z,91.74
2019-04-06T06:59:23.615Z,93.29
2019-04-06T07:00:23.762Z,92.67
2019-04-06T07:01:23.590Z,90.78
2019-04-06T07:02:23.578Z,91.19
2019-04-06T07:03:23.587Z,87.59
2019-04-06T07:04:23.563Z,90.47
2019-04-06T07:05:23.640Z,91.19
2019-04-06T07:06:23.705Z,91.19
2019-04-06T07:07:23.525Z,91.49
2019-04-06T07:08:23.556Z,90.83
2019-04-06T07:09:23.503Z,89.60
2019-04-06T07:10:23.502Z,87.65
2019-04-06T07:11:23.502Z,88.27
2019-04-06T07:12:23.470Z,85.76
2019-04-06T07:13:23.470Z,86.93
2019-04-06T07:14:23.475Z,82.27
2019-04-06T07:15:23.480Z,86.58
2019-04-06T07:16:23.434Z,86.79
2019-04-06T07:17:23.426Z,86.68
2019-04-06T07:18:23.421Z,86.48
2019-04-06T07:19:23.398Z,84.53
2019-04-06T07:20:23.637Z,84.32
2019-04-06T07:21:23.445Z,84.42
2019-04-06T07:22:23.366Z,80.32
2019-04-06T07:23:23.356Z,81.55
2019-04-06T07:24:23.342Z,84.94
2019-04-06T07:25:23.393Z,85.25
2019-04-06T07:26:23.353Z,84.80
2019-04-06T07:27:23.551Z,85.00
2019-04-06T07:28:23.348Z,83.05
2019-04-06T07:29:23.471Z,82.84
2019-04-06T07:30:23.278Z,82.81
2019-04-06T07:31:23.291Z,83.42
2019-04-06T07:32:23.258Z,82.09
2019-04-06T07:33:23.247Z,82.19
2019-04-06T07:34:23.238Z,81.27
2019-04-06T07:35:23.225Z,83.63
2019-04-06T07:36:23.310Z,83.07
2019-04-06T07:37:23.237Z,79.28
2019-04-06T07:38:23.194Z,81.13
2019-04-06T07:39:23.333Z,81.95
2019-04-06T07:40:23.176Z,81.81
2019-04-06T07:41:23.160Z,81.29
2019-04-06T07:42:23.150Z,82.12
2019-04-06T07:43:23.157Z,81.81
2019-04-06T07:44:23.200Z,81.50
2019-04-06T07:45:23.218Z,81.29
2019-04-06T07:46:23.115Z,80.68
2019-04-06T07:47:23.115Z,78.53
2019-04-06T07:48:23.087Z,80.58
2019-04-06T07:49:23.074Z,81.81
2019-04-06T07:50:23.065Z,81.50
2019-04-06T07:51:23.064Z,78.42
2019-04-06T07:52:23.065Z,80.07
2019-04-06T07:53:23.030Z,81.50
2019-04-06T07:54:23.022Z,81.50
2019-04-06T07:55:23.019Z,81.40
2019-04-06T07:56:23.000Z,80.78
2019-04-06T07:57:23.011Z,80.68
2019-04-06T07:58:23.002Z,80.17
2019-04-06T07:59:22.966Z,80.68
2019-04-06T08:00:22.956Z,80.47
2019-04-06T08:01:22.954Z,80.58
2019-04-06T08:02:22.979Z,81.05
2019-04-06T08:03:22.949Z,80.03
2019-04-06T08:04:22.917Z,80.78
2019-04-06T08:05:22.912Z,80.78
2019-04-06T08:06:22.911Z,79.93
2019-04-06T08:07:22.888Z,80.23
2019-04-06T08:08:22.869Z,80.13
2019-04-06T08:09:22.882Z,77.36
2019-04-06T08:10:22.846Z,79.31
2019-04-06T08:11:22.839Z,79.52
2019-04-06T08:12:22.852Z,78.59
2019-04-06T08:13:22.823Z,79.38
2019-04-06T08:14:22.833Z,78.25
2019-04-06T08:15:22.796Z,78.25
2019-04-06T08:16:22.786Z,78.45
2019-04-06T08:17:22.775Z,77.12
2019-04-06T08:18:22.768Z,75.89
2019-04-06T08:19:22.757Z,76.40
2019-04-06T08:20:22.900Z,78.25
2019-04-06T08:21:22.727Z,77.94
2019-04-06T08:22:22.731Z,77.12
2019-04-06T08:23:22.714Z,75.99
2019-04-06T08:24:22.695Z,75.38
2019-04-06T08:25:22.709Z,79.38
2019-04-06T08:26:22.834Z,78.05
2019-04-06T08:27:22.664Z,79.89
2019-04-06T08:28:22.656Z,77.94
2019-04-06T08:29:22.648Z,78.56
2019-04-06T08:30:22.651Z,78.01
2019-04-06T08:31:22.646Z,75.86
2019-04-06T08:32:22.613Z,75.45
2019-04-06T08:33:22.599Z,76.06
2019-04-06T08:34:22.589Z,76.78
2019-04-06T08:35:26.169Z,75.62
2019-04-06T08:36:22.601Z,76.64
2019-04-06T08:37:22.556Z,76.54
2019-04-06T08:38:22.546Z,76.34
2019-04-06T08:39:22.534Z,77.15
2019-04-06T08:40:22.526Z,76.54
2019-04-06T08:41:22.555Z,78.08
2019-04-06T08:42:22.514Z,76.43
2019-04-06T08:43:22.493Z,75.82
2019-04-06T08:44:22.514Z,75.31
2019-04-06T08:45:22.597Z,74.49
2019-04-06T08:46:22.465Z,73.27
2019-04-06T08:47:22.467Z,73.98
2019-04-06T08:48:22.439Z,73.44
2019-04-06T08:49:22.630Z,73.06
2019-04-06T08:50:22.602Z,72.86
2019-04-06T08:51:22.408Z,72.21
2019-04-06T08:52:22.436Z,71.59
2019-04-06T08:53:22.386Z,72.41
2019-04-06T08:54:22.377Z,72.69
2019-04-06T08:55:22.371Z,72.72
2019-04-06T08:56:22.351Z,73.20
2019-04-06T08:57:23.279Z,72.89
2019-04-06T08:58:22.349Z,72.17
2019-04-06T08:59:22.532Z,71.05
2019-04-06T09:00:22.322Z,71.15
2019-04-06T09:01:22.303Z,71.94
2019-04-06T09:02:22.286Z,71.33
2019-04-06T09:03:22.296Z,69.59
2019-04-06T09:04:22.322Z,69.65
2019-04-06T09:05:22.482Z,70.37
2019-04-06T09:06:22.245Z,70.98
2019-04-06T09:07:22.240Z,70.78
2019-04-06T09:08:22.276Z,69.15
2019-04-06T09:09:22.217Z,67.61
2019-04-06T09:10:22.224Z,69.52
2019-04-06T09:11:22.211Z,67.99
2019-04-06T09:12:22.179Z,67.96
2019-04-06T09:13:22.210Z,67.85
2019-04-06T09:14:22.186Z,70.20
2019-04-06T09:15:22.150Z,69.08
2019-04-06T09:16:22.140Z,69.46
2019-04-06T09:17:22.138Z,69.66
2019-04-06T09:18:22.120Z,68.03
2019-04-06T09:19:22.121Z,69.63
2019-04-06T09:20:22.094Z,68.20
2019-04-06T09:21:22.852Z,65.95
2019-04-06T09:22:22.092Z,67.99
2019-04-06T09:23:22.116Z,67.96
2019-04-06T09:24:22.338Z,67.15
2019-04-06T09:25:22.039Z,69.29
2019-04-06T09:26:22.162Z,68.78
2019-04-06T09:27:22.033Z,66.64
2019-04-06T09:28:22.020Z,66.54
2019-04-06T09:29:24.281Z,67.96
2019-04-06T09:30:22.000Z,68.68
2019-04-06T09:31:22.213Z,65.92
2019-04-06T09:32:22.258Z,66.64
2019-04-06T09:33:22.082Z,66.13
2019-04-06T09:34:22.059Z,67.32
2019-04-06T09:35:21.952Z,67.63
2019-04-06T09:36:21.942Z,69.97
2019-04-06T09:37:22.170Z,68.75
2019-04-06T09:38:22.097Z,67.80
2019-04-06T09:39:21.912Z,67.90
2019-04-06T09:40:21.910Z,64.03
2019-04-06T09:41:21.871Z,65.46
2019-04-06T09:42:21.871Z,65.43
2019-04-06T09:43:21.847Z,63.59
2019-04-06T09:44:21.841Z,67.46
2019-04-06T09:45:21.839Z,66.14
2019-04-06T09:46:21.831Z,63.90
2019-04-06T09:47:21.828Z,66.04
2019-04-06T09:48:21.793Z,65.43
2019-04-06T09:49:21.791Z,63.59
2019-04-06T09:50:21.789Z,61.76
2019-04-06T09:51:21.788Z,64.20
2019-04-06T09:52:21.752Z,64.92
2019-04-06T09:53:21.762Z,65.16
2019-04-06T09:54:21.732Z,66.75
2019-04-06T09:55:21.974Z,67.46
2019-04-06T09:56:21.724Z,63.49
2019-04-06T09:57:21.721Z,65.83
2019-04-06T09:58:21.684Z,66.72
2019-04-06T09:59:34.273Z,67.02
2019-04-06T10:00:22.688Z,65.91
2019-04-06T10:01:21.670Z,65.80
2019-04-06T10:02:21.701Z,65.94
2019-04-06T10:03:21.638Z,67.57
2019-04-06T10:04:21.642Z,67.87
2019-04-06T10:05:21.813Z,69.29
2019-04-06T10:06:21.601Z,66.14
2019-04-06T10:07:21.597Z,69.49
2019-04-06T10:08:21.602Z,68.07
2019-04-06T10:09:21.640Z,65.12
2019-04-06T10:10:21.724Z,66.14
2019-04-06T10:11:21.550Z,67.36
2019-04-06T10:12:21.536Z,67.87
2019-04-06T10:13:21.552Z,66.82
2019-04-06T10:14:21.514Z,67.94
2019-04-06T10:15:21.559Z,69.13
2019-04-06T10:16:21.497Z,69.23
2019-04-06T10:17:21.488Z,66.89
2019-04-06T10:18:21.549Z,65.47
2019-04-06T10:19:21.464Z,66.25
2019-04-06T10:20:21.729Z,65.74
2019-04-06T10:21:21.729Z,64.83
2019-04-06T10:22:21.451Z,63.07
2019-04-06T10:23:21.445Z,63.00
2019-04-06T10:24:21.430Z,62.59
2019-04-06T10:25:21.405Z,62.79
2019-04-06T10:26:21.384Z,60.59
2019-04-06T10:27:21.375Z,61.53
2019-04-06T10:28:21.362Z,62.96
2019-04-06T10:29:21.416Z,64.07
2019-04-06T10:30:21.339Z,65.06
2019-04-06T10:31:21.330Z,65.36
2019-04-06T10:32:21.324Z,64.45
2019-04-06T10:33:21.452Z,60.99
2019-04-06T10:34:21.327Z,63.64
2019-04-06T10:35:21.288Z,62.93
2019-04-06T10:36:21.275Z,63.74
2019-04-06T10:37:21.424Z,63.02
2019-04-06T10:38:21.433Z,63.23
2019-04-06T10:39:21.261Z,63.71
2019-04-06T10:40:21.293Z,62.08
2019-04-06T10:41:21.227Z,62.76
2019-04-06T10:42:21.221Z,62.56
2019-04-06T10:43:21.203Z,63.28
2019-04-06T10:45:40.789Z,61.32
2019-04-06T10:46:40.804Z,61.01
2019-04-06T10:47:40.752Z,61.52
2019-04-06T10:48:40.741Z,61.41
2019-04-06T10:49:40.733Z,62.13
2019-04-06T10:50:40.985Z,61.04
2019-04-06T10:51:41.357Z,61.55
2019-04-06T10:52:40.704Z,61.24
2019-04-06T10:53:40.751Z,63.17
2019-04-06T10:54:41.004Z,63.78
2019-04-06T10:55:40.668Z,63.98
2019-04-06T10:56:41.096Z,64.97
2019-04-06T10:57:40.659Z,63.24
2019-04-06T10:58:40.640Z,65.55
2019-04-06T10:59:40.638Z,63.52
2019-04-06T11:00:40.912Z,63.32
2019-04-06T11:01:40.814Z,65.62
2019-04-06T11:02:40.595Z,66.23
2019-04-06T11:03:40.608Z,65.28
2019-04-06T11:04:40.767Z,63.76
2019-04-06T11:05:40.866Z,61.02
2019-04-06T11:06:40.577Z,61.91
2019-04-06T11:07:40.543Z,63.46
2019-04-06T11:08:40.533Z,62.41
2019-04-06T11:09:40.522Z,62.34
2019-04-06T11:10:40.590Z,61.53
2019-04-06T11:11:40.528Z,61.13
2019-04-06T11:12:40.494Z,62.52
2019-04-06T11:13:40.674Z,62.62
2019-04-06T11:14:40.484Z,60.39
2019-04-06T11:15:40.461Z,61.10
2019-04-06T11:16:40.842Z,59.48
2019-04-06T11:17:40.576Z,60.19
2019-04-06T11:18:40.931Z,60.28
2019-04-06T11:19:40.415Z,58.76
2019-04-06T11:20:40.409Z,59.81
2019-04-06T11:21:40.407Z,62.65
2019-04-06T11:22:40.388Z,62.24
2019-04-06T11:23:40.431Z,60.62
2019-04-06T11:24:40.587Z,63.73
2019-04-06T11:25:40.354Z,63.02
2019-04-06T11:26:41.077Z,60.66
2019-04-06T11:27:42.870Z,61.17
2019-04-06T11:28:41.609Z,62.29
2019-04-06T11:29:40.306Z,59.85
2019-04-06T11:30:40.325Z,59.05
2019-04-06T11:31:40.409Z,60.46
2019-04-06T11:32:40.295Z,60.66
2019-04-06T11:33:40.266Z,62.26
2019-04-06T11:34:40.252Z,60.13
2019-04-06T11:35:40.635Z,61.14
2019-04-06T11:36:40.239Z,59.42
2019-04-06T11:37:40.241Z,62.05
2019-04-06T11:38:40.211Z,61.82
2019-04-06T11:39:40.204Z,59.59
2019-04-06T11:40:40.185Z,57.67
2019-04-06T11:41:40.195Z,60.61
2019-04-06T11:42:40.432Z,61.90
2019-04-06T11:43:40.153Z,62.23
2019-04-06T11:44:40.144Z,57.65
2019-04-06T11:45:40.176Z,55.82
2019-04-06T11:46:40.202Z,56.33
2019-04-06T11:47:40.254Z,58.89
2019-04-06T11:48:40.099Z,61.19
2019-04-06T11:49:40.098Z,56.99
2019-04-06T11:50:40.079Z,60.00
2019-04-06T11:51:40.067Z,57.29
2019-04-06T11:52:40.058Z,60.61
2019-04-06T11:53:40.064Z,58.78
2019-04-06T11:54:40.046Z,56.76
2019-04-06T11:55:40.026Z,61.99
2019-04-06T11:56:40.013Z,59.97
2019-04-06T11:57:40.019Z,57.24
2019-04-06T11:58:40.030Z,56.81
2019-04-06T11:59:40.254Z,56.61
2019-04-06T12:00:39.971Z,56.81
2019-04-06T12:01:39.959Z,54.71
2019-04-06T12:02:39.950Z,57.65
2019-04-06T12:03:39.965Z,55.42
2019-04-06T12:04:39.930Z,57.24
2019-04-06T12:05:40.232Z,56.53
2019-04-06T12:06:39.908Z,58.96
2019-04-06T12:07:39.957Z,56.23
2019-04-06T12:08:39.910Z,53.88
2019-04-06T12:09:39.877Z,57.11
2019-04-06T12:10:39.910Z,55.40
2019-04-06T12:11:39.855Z,55.60
2019-04-06T12:12:39.853Z,55.40
2019-04-06T12:13:40.168Z,55.40
2019-04-06T12:14:39.841Z,57.72
2019-04-06T12:15:39.808Z,54.46
2019-04-06T12:16:39.818Z,55.57
2019-04-06T12:17:39.793Z,55.67
2019-04-06T12:18:39.778Z,56.78
2019-04-06T12:19:39.790Z,55.94
2019-04-06T12:20:39.759Z,56.07
2019-04-06T12:21:39.755Z,53.75
2019-04-06T12:22:39.739Z,53.12
2019-04-06T12:23:39.741Z,55.04
2019-04-06T12:24:39.714Z,55.34
2019-04-06T12:25:39.704Z,55.44
2019-04-06T12:26:39.751Z,55.07
2019-04-06T12:27:39.686Z,55.24
2019-04-06T12:28:39.796Z,56.85
2019-04-06T12:29:39.660Z,56.65
2019-04-06T12:30:39.647Z,54.13
2019-04-06T12:31:39.637Z,54.63
2019-04-06T12:32:39.938Z,55.01
2019-04-06T12:33:39.854Z,55.41
2019-04-06T12:34:39.626Z,55.41
2019-04-06T12:35:39.603Z,55.21
2019-04-06T12:36:39.608Z,52.29
2019-04-06T12:37:39.577Z,52.31
2019-04-06T12:38:39.565Z,56.63
2019-04-06T12:39:51.435Z,53.70
2019-04-06T12:40:40.539Z,55.82
2019-04-06T12:41:39.531Z,53.40
2019-04-06T12:42:39.538Z,52.09
2019-04-06T12:43:39.688Z,55.32
2019-04-06T12:44:39.681Z,53.70
2019-04-06T12:45:39.509Z,55.49
2019-04-06T12:46:39.558Z,53.27
2019-04-06T12:47:39.548Z,53.17
2019-04-06T12:48:39.470Z,52.56
2019-04-06T12:49:39.604Z,51.66
2019-04-06T12:50:39.584Z,54.58
2019-04-06T12:51:39.563Z,55.09
2019-04-06T12:52:39.415Z,52.56
2019-04-06T12:53:39.407Z,51.66